sensor_id;sensor_type;location;lat;lon;timestamp;temperature;humidity
22436;DHT22;11385;50.822;4.324;2023-11-19T00:00:25;13.60;99.90
22436;DHT22;11385;50.822;4.324;2023-11-19T00:03:05;13.60;99.90
22436;DHT22;11385;50.822;4.324;2023-11-19T00:05:40;13.60;99.90
22436;DHT22;11385;50.822;4.324;2023-11-19T00:08:18;13.60;99.90
22436;DHT22;11385;50.822;4.324;2023-11-19T00:10:52;13.50;99.90
22436;DHT22;11385;50.822;4.324;2023-11-19T00:13:32;13.50;99.90
22436;DHT22;11385;50.822;4.324;2023-11-19T00:16:08;13.50;99.90
22436;DHT22;11385;50.822;4.324;2023-11-19T00:18:39;13.60;99.90
22436;DHT22;11385;50.822;4.324;2023-11-19T00:21:16;13.70;99.90
22436;DHT22;11385;50.822;4.324;2023-11-19T00:23:53;13.80;99.90
22436;DHT22;11385;50.822;4.324;2023-11-19T00:26:30;13.90;99.90
22436;DHT22;11385;50.822;4.324;2023-11-19T00:29:05;13.90;99.90
22436;DHT22;11385;50.822;4.324;2023-11-19T00:31:42;13.70;99.90
22436;DHT22;11385;50.822;4.324;2023-11-19T00:34:17;13.80;99.90
22436;DHT22;11385;50.822;4.324;2023-11-19T00:36:54;13.80;99.90
22436;DHT22;11385;50.822;4.324;2023-11-19T00:39:32;13.80;99.90
22436;DHT22;11385;50.822;4.324;2023-11-19T00:42:07;13.80;99.90
22436;DHT22;11385;50.822;4.324;2023-11-19T00:47:18;13.70;99.90
22436;DHT22;11385;50.822;4.324;2023-11-19T00:49:59;13.70;99.90
22436;DHT22;11385;50.822;4.324;2023-11-19T00:52:33;13.70;99.90
22436;DHT22;11385;50.822;4.324;2023-11-19T00:55:07;13.70;99.90
22436;DHT22;11385;50.822;4.324;2023-11-19T00:57:47;13.70;99.90
22436;DHT22;11385;50.822;4.324;2023-11-19T01:00:22;13.70;99.90
22436;DHT22;11385;50.822;4.324;2023-11-19T01:02:58;13.60;99.90
22436;DHT22;11385;50.822;4.324;2023-11-19T01:05:43;13.60;99.90
22436;DHT22;11385;50.822;4.324;2023-11-19T01:08:20;13.60;99.90
22436;DHT22;11385;50.822;4.324;2023-11-19T01:10:56;13.60;99.90
22436;DHT22;11385;50.822;4.324;2023-11-19T01:13:33;13.60;99.90
22436;DHT22;11385;50.822;4.324;2023-11-19T01:16:08;13.60;99.90
22436;DHT22;11385;50.822;4.324;2023-11-19T01:18:44;13.60;99.90
22436;DHT22;11385;50.822;4.324;2023-11-19T01:21:14;13.60;99.90
22436;DHT22;11385;50.822;4.324;2023-11-19T01:23:50;13.60;99.90
22436;DHT22;11385;50.822;4.324;2023-11-19T01:26:30;13.70;99.90
22436;DHT22;11385;50.822;4.324;2023-11-19T01:29:05;13.70;99.90
22436;DHT22;11385;50.822;4.324;2023-11-19T01:31:41;13.60;99.90
22436;DHT22;11385;50.822;4.324;2023-11-19T01:34:17;13.60;99.90
22436;DHT22;11385;50.822;4.324;2023-11-19T01:36:53;13.60;99.90
22436;DHT22;11385;50.822;4.324;2023-11-19T01:39:30;13.50;99.90
22436;DHT22;11385;50.822;4.324;2023-11-19T01:42:00;13.50;99.90
22436;DHT22;11385;50.822;4.324;2023-11-19T01:44:38;13.40;99.90
22436;DHT22;11385;50.822;4.324;2023-11-19T01:47:11;13.30;99.90
22436;DHT22;11385;50.822;4.324;2023-11-19T01:49:46;13.40;99.90
22436;DHT22;11385;50.822;4.324;2023-11-19T01:52:23;13.40;99.90
22436;DHT22;11385;50.822;4.324;2023-11-19T01:54:58;13.50;99.90
22436;DHT22;11385;50.822;4.324;2023-11-19T01:57:33;13.40;99.90
22436;DHT22;11385;50.822;4.324;2023-11-19T02:00:09;13.50;99.90
22436;DHT22;11385;50.822;4.324;2023-11-19T02:02:43;13.50;99.90
22436;DHT22;11385;50.822;4.324;2023-11-19T02:05:14;13.50;99.90
22436;DHT22;11385;50.822;4.324;2023-11-19T02:07:40;13.50;99.90
22436;DHT22;11385;50.822;4.324;2023-11-19T02:10:07;13.50;99.90
22436;DHT22;11385;50.822;4.324;2023-11-19T02:12:36;13.40;99.90
22436;DHT22;11385;50.822;4.324;2023-11-19T02:15:03;13.30;99.90
22436;DHT22;11385;50.822;4.324;2023-11-19T02:17:30;13.30;99.90
22436;DHT22;11385;50.822;4.324;2023-11-19T02:19:58;13.30;99.90
22436;DHT22;11385;50.822;4.324;2023-11-19T02:22:25;13.30;99.90
22436;DHT22;11385;50.822;4.324;2023-11-19T02:24:57;13.30;99.90
22436;DHT22;11385;50.822;4.324;2023-11-19T02:27:30;13.30;99.90
22436;DHT22;11385;50.822;4.324;2023-11-19T02:29:57;13.30;99.90
22436;DHT22;11385;50.822;4.324;2023-11-19T02:32:24;13.30;99.90
22436;DHT22;11385;50.822;4.324;2023-11-19T02:34:52;13.20;99.90
22436;DHT22;11385;50.822;4.324;2023-11-19T02:37:19;13.10;99.90
22436;DHT22;11385;50.822;4.324;2023-11-19T02:39:45;13.10;99.90
22436;DHT22;11385;50.822;4.324;2023-11-19T02:42:12;13.10;99.90
22436;DHT22;11385;50.822;4.324;2023-11-19T02:44:43;13.10;99.90
22436;DHT22;11385;50.822;4.324;2023-11-19T02:47:11;13.20;99.90
22436;DHT22;11385;50.822;4.324;2023-11-19T02:49:38;13.20;99.90
22436;DHT22;11385;50.822;4.324;2023-11-19T02:52:05;13.10;99.90
22436;DHT22;11385;50.822;4.324;2023-11-19T02:54:32;13.20;99.90
22436;DHT22;11385;50.822;4.324;2023-11-19T02:57:01;13.30;99.90
22436;DHT22;11385;50.822;4.324;2023-11-19T02:59:29;13.20;99.90
22436;DHT22;11385;50.822;4.324;2023-11-19T03:01:58;13.10;99.90
22436;DHT22;11385;50.822;4.324;2023-11-19T03:04:26;13.10;99.90
22436;DHT22;11385;50.822;4.324;2023-11-19T03:06:53;13.10;99.90
22436;DHT22;11385;50.822;4.324;2023-11-19T03:09:19;13.00;99.90
22436;DHT22;11385;50.822;4.324;2023-11-19T03:11:47;13.00;99.90
22436;DHT22;11385;50.822;4.324;2023-11-19T03:14:14;13.00;99.90
22436;DHT22;11385;50.822;4.324;2023-11-19T03:16:40;13.00;99.90
22436;DHT22;11385;50.822;4.324;2023-11-19T03:19:07;13.00;99.90
22436;DHT22;11385;50.822;4.324;2023-11-19T03:21:34;13.00;99.90
22436;DHT22;11385;50.822;4.324;2023-11-19T03:24:00;13.00;99.90
22436;DHT22;11385;50.822;4.324;2023-11-19T03:26:27;12.90;99.90
22436;DHT22;11385;50.822;4.324;2023-11-19T03:28:54;12.80;99.90
22436;DHT22;11385;50.822;4.324;2023-11-19T03:31:22;12.80;99.90
22436;DHT22;11385;50.822;4.324;2023-11-19T03:33:49;12.80;99.90
22436;DHT22;11385;50.822;4.324;2023-11-19T03:36:16;12.80;99.90
22436;DHT22;11385;50.822;4.324;2023-11-19T03:38:43;12.80;99.90
22436;DHT22;11385;50.822;4.324;2023-11-19T03:41:12;12.70;99.90
22436;DHT22;11385;50.822;4.324;2023-11-19T03:43:39;12.60;99.90
22436;DHT22;11385;50.822;4.324;2023-11-19T03:46:18;12.70;99.90
22436;DHT22;11385;50.822;4.324;2023-11-19T03:48:46;12.80;99.90
22436;DHT22;11385;50.822;4.324;2023-11-19T03:51:13;12.70;99.90
22436;DHT22;11385;50.822;4.324;2023-11-19T03:53:43;12.60;99.90
22436;DHT22;11385;50.822;4.324;2023-11-19T03:56:10;12.50;99.90
22436;DHT22;11385;50.822;4.324;2023-11-19T03:58:38;12.50;99.90
22436;DHT22;11385;50.822;4.324;2023-11-19T04:01:05;12.50;99.90
22436;DHT22;11385;50.822;4.324;2023-11-19T04:03:32;12.50;99.90
22436;DHT22;11385;50.822;4.324;2023-11-19T04:05:59;12.60;99.90
22436;DHT22;11385;50.822;4.324;2023-11-19T04:08:25;12.60;99.90
22436;DHT22;11385;50.822;4.324;2023-11-19T04:10:53;12.60;99.90
22436;DHT22;11385;50.822;4.324;2023-11-19T04:13:19;12.50;99.90
22436;DHT22;11385;50.822;4.324;2023-11-19T04:15:46;12.50;99.90
22436;DHT22;11385;50.822;4.324;2023-11-19T04:18:13;12.40;99.90
22436;DHT22;11385;50.822;4.324;2023-11-19T04:20:39;12.50;99.90
22436;DHT22;11385;50.822;4.324;2023-11-19T04:23:08;12.40;99.90
22436;DHT22;11385;50.822;4.324;2023-11-19T04:25:35;12.40;99.90
22436;DHT22;11385;50.822;4.324;2023-11-19T04:28:03;12.50;99.90
22436;DHT22;11385;50.822;4.324;2023-11-19T04:30:30;12.60;99.90
22436;DHT22;11385;50.822;4.324;2023-11-19T04:32:57;12.50;99.90
22436;DHT22;11385;50.822;4.324;2023-11-19T04:35:24;12.40;99.90
22436;DHT22;11385;50.822;4.324;2023-11-19T04:37:52;12.50;99.90
22436;DHT22;11385;50.822;4.324;2023-11-19T04:40:19;12.50;99.90
22436;DHT22;11385;50.822;4.324;2023-11-19T04:42:47;12.60;99.90
22436;DHT22;11385;50.822;4.324;2023-11-19T04:45:14;12.60;99.90
22436;DHT22;11385;50.822;4.324;2023-11-19T04:47:43;12.50;99.90
22436;DHT22;11385;50.822;4.324;2023-11-19T04:50:10;12.60;99.90
22436;DHT22;11385;50.822;4.324;2023-11-19T04:52:38;12.60;99.90
22436;DHT22;11385;50.822;4.324;2023-11-19T04:55:08;12.60;99.90
22436;DHT22;11385;50.822;4.324;2023-11-19T04:57:36;12.60;99.90
22436;DHT22;11385;50.822;4.324;2023-11-19T05:00:04;12.70;99.90
22436;DHT22;11385;50.822;4.324;2023-11-19T05:02:31;12.70;99.90
22436;DHT22;11385;50.822;4.324;2023-11-19T05:04:57;12.70;99.90
22436;DHT22;11385;50.822;4.324;2023-11-19T05:07:24;12.70;99.90
22436;DHT22;11385;50.822;4.324;2023-11-19T05:09:51;12.60;99.90
22436;DHT22;11385;50.822;4.324;2023-11-19T05:12:17;12.50;99.90
22436;DHT22;11385;50.822;4.324;2023-11-19T05:14:44;12.40;99.90
22436;DHT22;11385;50.822;4.324;2023-11-19T05:17:13;12.40;99.90
22436;DHT22;11385;50.822;4.324;2023-11-19T05:19:39;12.30;99.90
22436;DHT22;11385;50.822;4.324;2023-11-19T05:22:06;12.20;99.90
22436;DHT22;11385;50.822;4.324;2023-11-19T05:24:33;12.20;99.90
22436;DHT22;11385;50.822;4.324;2023-11-19T05:27:00;12.20;99.90
22436;DHT22;11385;50.822;4.324;2023-11-19T05:29:27;12.20;99.90
22436;DHT22;11385;50.822;4.324;2023-11-19T05:37:22;12.30;99.90
22436;DHT22;11385;50.822;4.324;2023-11-19T05:39:49;12.40;99.90
22436;DHT22;11385;50.822;4.324;2023-11-19T05:42:16;12.40;99.90
22436;DHT22;11385;50.822;4.324;2023-11-19T05:44:43;12.30;99.90
22436;DHT22;11385;50.822;4.324;2023-11-19T05:47:09;12.30;99.90
22436;DHT22;11385;50.822;4.324;2023-11-19T05:49:36;12.20;99.90
22436;DHT22;11385;50.822;4.324;2023-11-19T05:52:03;12.20;99.90
22436;DHT22;11385;50.822;4.324;2023-11-19T05:54:32;12.20;99.90
22436;DHT22;11385;50.822;4.324;2023-11-19T05:57:01;12.10;99.90
22436;DHT22;11385;50.822;4.324;2023-11-19T05:59:28;12.00;99.90
22436;DHT22;11385;50.822;4.324;2023-11-19T06:01:57;12.00;99.90
22436;DHT22;11385;50.822;4.324;2023-11-19T06:04:24;12.00;99.90
22436;DHT22;11385;50.822;4.324;2023-11-19T06:06:50;12.00;99.90
22436;DHT22;11385;50.822;4.324;2023-11-19T06:09:17;12.00;99.90
22436;DHT22;11385;50.822;4.324;2023-11-19T06:11:44;12.00;99.90
22436;DHT22;11385;50.822;4.324;2023-11-19T06:14:13;12.00;99.90
22436;DHT22;11385;50.822;4.324;2023-11-19T06:16:39;12.00;99.90
22436;DHT22;11385;50.822;4.324;2023-11-19T06:19:06;12.00;99.90
22436;DHT22;11385;50.822;4.324;2023-11-19T06:21:33;12.00;99.90
22436;DHT22;11385;50.822;4.324;2023-11-19T06:24:02;12.00;99.90
22436;DHT22;11385;50.822;4.324;2023-11-19T06:26:29;12.00;99.90
22436;DHT22;11385;50.822;4.324;2023-11-19T06:28:56;11.90;99.90
22436;DHT22;11385;50.822;4.324;2023-11-19T06:31:22;11.90;99.90
22436;DHT22;11385;50.822;4.324;2023-11-19T06:33:49;12.00;99.90
22436;DHT22;11385;50.822;4.324;2023-11-19T06:36:16;11.90;99.90
22436;DHT22;11385;50.822;4.324;2023-11-19T06:38:43;11.80;99.90
22436;DHT22;11385;50.822;4.324;2023-11-19T06:41:10;11.80;99.90
22436;DHT22;11385;50.822;4.324;2023-11-19T06:43:37;11.70;99.90
22436;DHT22;11385;50.822;4.324;2023-11-19T06:46:04;11.80;99.90
22436;DHT22;11385;50.822;4.324;2023-11-19T06:48:32;12.00;99.90
22436;DHT22;11385;50.822;4.324;2023-11-19T06:51:00;12.00;99.90
22436;DHT22;11385;50.822;4.324;2023-11-19T06:53:26;12.00;99.90
22436;DHT22;11385;50.822;4.324;2023-11-19T06:55:54;11.90;99.90
22436;DHT22;11385;50.822;4.324;2023-11-19T06:58:21;11.90;99.90
22436;DHT22;11385;50.822;4.324;2023-11-19T07:00:48;11.80;99.90
22436;DHT22;11385;50.822;4.324;2023-11-19T07:03:17;11.80;99.90
22436;DHT22;11385;50.822;4.324;2023-11-19T07:05:43;11.90;99.90
22436;DHT22;11385;50.822;4.324;2023-11-19T07:08:10;11.90;99.90
22436;DHT22;11385;50.822;4.324;2023-11-19T07:10:37;12.00;99.90
22436;DHT22;11385;50.822;4.324;2023-11-19T07:13:03;12.10;99.90
22436;DHT22;11385;50.822;4.324;2023-11-19T07:15:31;12.10;99.90
22436;DHT22;11385;50.822;4.324;2023-11-19T07:17:58;12.10;99.90
22436;DHT22;11385;50.822;4.324;2023-11-19T07:20:26;12.20;99.90
22436;DHT22;11385;50.822;4.324;2023-11-19T07:22:54;12.10;99.90
22436;DHT22;11385;50.822;4.324;2023-11-19T07:25:23;12.10;99.90
22436;DHT22;11385;50.822;4.324;2023-11-19T07:27:51;12.20;99.90
22436;DHT22;11385;50.822;4.324;2023-11-19T07:30:18;12.20;99.90
22436;DHT22;11385;50.822;4.324;2023-11-19T07:32:45;12.30;99.90
22436;DHT22;11385;50.822;4.324;2023-11-19T07:35:12;12.30;99.90
22436;DHT22;11385;50.822;4.324;2023-11-19T07:37:39;12.20;99.90
22436;DHT22;11385;50.822;4.324;2023-11-19T07:40:06;12.30;99.90
22436;DHT22;11385;50.822;4.324;2023-11-19T07:42:33;12.20;99.90
22436;DHT22;11385;50.822;4.324;2023-11-19T07:45:00;12.30;99.90
22436;DHT22;11385;50.822;4.324;2023-11-19T07:47:26;12.20;99.90
22436;DHT22;11385;50.822;4.324;2023-11-19T07:49:55;12.00;99.90
22436;DHT22;11385;50.822;4.324;2023-11-19T07:52:21;12.00;99.90
22436;DHT22;11385;50.822;4.324;2023-11-19T07:54:48;12.10;99.90
22436;DHT22;11385;50.822;4.324;2023-11-19T07:57:14;12.20;99.90
22436;DHT22;11385;50.822;4.324;2023-11-19T07:59:41;12.20;99.90
22436;DHT22;11385;50.822;4.324;2023-11-19T08:02:08;12.20;99.90
22436;DHT22;11385;50.822;4.324;2023-11-19T08:04:35;12.20;99.90
22436;DHT22;11385;50.822;4.324;2023-11-19T08:07:01;12.20;99.90
22436;DHT22;11385;50.822;4.324;2023-11-19T08:09:28;12.10;99.90
22436;DHT22;11385;50.822;4.324;2023-11-19T08:11:55;12.10;99.90
22436;DHT22;11385;50.822;4.324;2023-11-19T08:14:22;12.30;99.90
22436;DHT22;11385;50.822;4.324;2023-11-19T08:16:49;12.20;99.90
22436;DHT22;11385;50.822;4.324;2023-11-19T08:19:16;12.20;99.90
22436;DHT22;11385;50.822;4.324;2023-11-19T08:21:42;12.20;99.90
22436;DHT22;11385;50.822;4.324;2023-11-19T08:24:09;12.20;99.90
22436;DHT22;11385;50.822;4.324;2023-11-19T08:26:35;12.20;99.90
22436;DHT22;11385;50.822;4.324;2023-11-19T08:29:02;12.20;99.90
22436;DHT22;11385;50.822;4.324;2023-11-19T08:31:29;12.20;99.90
22436;DHT22;11385;50.822;4.324;2023-11-19T08:33:56;12.30;99.90
22436;DHT22;11385;50.822;4.324;2023-11-19T08:36:24;12.40;99.90
22436;DHT22;11385;50.822;4.324;2023-11-19T08:38:51;12.50;99.90
22436;DHT22;11385;50.822;4.324;2023-11-19T08:41:17;12.50;99.90
22436;DHT22;11385;50.822;4.324;2023-11-19T08:43:45;12.40;99.90
22436;DHT22;11385;50.822;4.324;2023-11-19T08:46:12;12.20;99.90
22436;DHT22;11385;50.822;4.324;2023-11-19T08:48:39;12.20;99.90
22436;DHT22;11385;50.822;4.324;2023-11-19T08:51:06;12.30;99.90
22436;DHT22;11385;50.822;4.324;2023-11-19T08:53:33;12.20;99.90
22436;DHT22;11385;50.822;4.324;2023-11-19T08:56:00;12.10;99.90
22436;DHT22;11385;50.822;4.324;2023-11-19T08:58:29;12.10;99.90
22436;DHT22;11385;50.822;4.324;2023-11-19T09:00:56;12.10;99.90
22436;DHT22;11385;50.822;4.324;2023-11-19T09:03:23;12.20;99.90
22436;DHT22;11385;50.822;4.324;2023-11-19T09:05:52;12.20;99.90
22436;DHT22;11385;50.822;4.324;2023-11-19T09:08:19;12.10;99.90
22436;DHT22;11385;50.822;4.324;2023-11-19T09:10:46;12.20;99.90
22436;DHT22;11385;50.822;4.324;2023-11-19T09:13:12;12.30;99.90
22436;DHT22;11385;50.822;4.324;2023-11-19T09:15:39;12.30;99.90
22436;DHT22;11385;50.822;4.324;2023-11-19T09:18:06;12.40;99.90
22436;DHT22;11385;50.822;4.324;2023-11-19T09:20:32;12.30;99.90
22436;DHT22;11385;50.822;4.324;2023-11-19T09:23:01;12.40;99.90
22436;DHT22;11385;50.822;4.324;2023-11-19T09:25:27;12.50;99.90
22436;DHT22;11385;50.822;4.324;2023-11-19T09:27:54;12.50;99.90
22436;DHT22;11385;50.822;4.324;2023-11-19T09:30:21;12.50;99.90
22436;DHT22;11385;50.822;4.324;2023-11-19T09:32:48;12.50;99.90
22436;DHT22;11385;50.822;4.324;2023-11-19T09:35:15;12.40;99.90
22436;DHT22;11385;50.822;4.324;2023-11-19T09:37:43;12.30;99.90
22436;DHT22;11385;50.822;4.324;2023-11-19T09:40:10;12.30;99.90
22436;DHT22;11385;50.822;4.324;2023-11-19T09:42:43;12.30;99.90
22436;DHT22;11385;50.822;4.324;2023-11-19T09:45:15;12.30;99.90
22436;DHT22;11385;50.822;4.324;2023-11-19T09:47:44;12.40;99.90
22436;DHT22;11385;50.822;4.324;2023-11-19T09:50:17;12.40;99.90
22436;DHT22;11385;50.822;4.324;2023-11-19T09:52:45;12.60;99.90
22436;DHT22;11385;50.822;4.324;2023-11-19T09:55:12;12.60;99.90
22436;DHT22;11385;50.822;4.324;2023-11-19T09:57:40;12.70;99.90
22436;DHT22;11385;50.822;4.324;2023-11-19T10:00:08;12.70;99.90
22436;DHT22;11385;50.822;4.324;2023-11-19T10:02:37;12.60;99.90
22436;DHT22;11385;50.822;4.324;2023-11-19T10:05:07;12.60;99.90
22436;DHT22;11385;50.822;4.324;2023-11-19T10:07:34;12.60;99.90
22436;DHT22;11385;50.822;4.324;2023-11-19T10:10:02;12.80;99.90
22436;DHT22;11385;50.822;4.324;2023-11-19T10:12:30;12.80;99.90
22436;DHT22;11385;50.822;4.324;2023-11-19T10:14:57;12.80;99.90
22436;DHT22;11385;50.822;4.324;2023-11-19T10:17:28;12.90;99.90
22436;DHT22;11385;50.822;4.324;2023-11-19T10:19:56;12.90;99.90
22436;DHT22;11385;50.822;4.324;2023-11-19T10:22:23;13.00;99.90
22436;DHT22;11385;50.822;4.324;2023-11-19T10:24:51;13.10;99.90
22436;DHT22;11385;50.822;4.324;2023-11-19T10:27:17;13.10;99.90
22436;DHT22;11385;50.822;4.324;2023-11-19T10:29:46;13.30;99.90
22436;DHT22;11385;50.822;4.324;2023-11-19T10:32:13;13.50;99.90
22436;DHT22;11385;50.822;4.324;2023-11-19T10:34:41;13.50;99.90
22436;DHT22;11385;50.822;4.324;2023-11-19T10:37:09;13.60;99.90
22436;DHT22;11385;50.822;4.324;2023-11-19T10:42:15;13.50;99.90
22436;DHT22;11385;50.822;4.324;2023-11-19T10:44:42;13.40;99.90
22436;DHT22;11385;50.822;4.324;2023-11-19T10:47:10;13.50;99.90
22436;DHT22;11385;50.822;4.324;2023-11-19T10:49:38;13.50;99.90
22436;DHT22;11385;50.822;4.324;2023-11-19T10:52:05;13.50;99.90
22436;DHT22;11385;50.822;4.324;2023-11-19T10:54:34;13.40;99.90
22436;DHT22;11385;50.822;4.324;2023-11-19T10:57:02;13.40;99.90
22436;DHT22;11385;50.822;4.324;2023-11-19T10:59:30;13.40;99.90
22436;DHT22;11385;50.822;4.324;2023-11-19T11:02:00;13.40;99.90
22436;DHT22;11385;50.822;4.324;2023-11-19T11:04:30;13.40;99.90
22436;DHT22;11385;50.822;4.324;2023-11-19T11:06:59;13.40;99.90
22436;DHT22;11385;50.822;4.324;2023-11-19T11:09:27;13.30;99.90
22436;DHT22;11385;50.822;4.324;2023-11-19T11:11:54;13.30;99.90
22436;DHT22;11385;50.822;4.324;2023-11-19T11:14:22;13.30;99.90
22436;DHT22;11385;50.822;4.324;2023-11-19T11:16:51;13.30;99.90
22436;DHT22;11385;50.822;4.324;2023-11-19T11:19:19;13.10;99.90
22436;DHT22;11385;50.822;4.324;2023-11-19T11:21:50;13.10;99.90
22436;DHT22;11385;50.822;4.324;2023-11-19T11:27:22;13.00;99.90
22436;DHT22;11385;50.822;4.324;2023-11-19T11:30:03;13.10;99.90
22436;DHT22;11385;50.822;4.324;2023-11-19T11:32:40;13.00;99.90
22436;DHT22;11385;50.822;4.324;2023-11-19T11:35:19;13.10;99.90
22436;DHT22;11385;50.822;4.324;2023-11-19T11:37:47;13.20;99.90
22436;DHT22;11385;50.822;4.324;2023-11-19T11:40:16;13.30;99.90
22436;DHT22;11385;50.822;4.324;2023-11-19T11:42:45;13.30;99.90
22436;DHT22;11385;50.822;4.324;2023-11-19T11:45:13;13.40;99.90
22436;DHT22;11385;50.822;4.324;2023-11-19T11:48:04;13.50;99.90
22436;DHT22;11385;50.822;4.324;2023-11-19T11:50:29;13.50;99.90
22436;DHT22;11385;50.822;4.324;2023-11-19T11:53:13;13.60;99.90
22436;DHT22;11385;50.822;4.324;2023-11-19T11:55:55;13.70;99.90
22436;DHT22;11385;50.822;4.324;2023-11-19T11:58:27;13.80;99.90
22436;DHT22;11385;50.822;4.324;2023-11-19T12:00:58;13.90;99.90
22436;DHT22;11385;50.822;4.324;2023-11-19T12:03:27;14.10;99.90
22436;DHT22;11385;50.822;4.324;2023-11-19T12:05:55;14.20;99.90
22436;DHT22;11385;50.822;4.324;2023-11-19T12:08:26;14.30;99.90
22436;DHT22;11385;50.822;4.324;2023-11-19T12:10:54;14.30;99.90
22436;DHT22;11385;50.822;4.324;2023-11-19T12:13:24;14.30;99.90
22436;DHT22;11385;50.822;4.324;2023-11-19T12:16:11;14.00;99.90
22436;DHT22;11385;50.822;4.324;2023-11-19T12:18:39;14.00;99.90
22436;DHT22;11385;50.822;4.324;2023-11-19T12:21:06;13.70;99.90
22436;DHT22;11385;50.822;4.324;2023-11-19T12:23:35;13.60;99.90
22436;DHT22;11385;50.822;4.324;2023-11-19T12:26:04;13.30;99.90
22436;DHT22;11385;50.822;4.324;2023-11-19T12:28:31;13.40;99.90
22436;DHT22;11385;50.822;4.324;2023-11-19T12:31:12;13.20;99.90
22436;DHT22;11385;50.822;4.324;2023-11-19T12:33:40;13.20;99.90
22436;DHT22;11385;50.822;4.324;2023-11-19T12:36:07;13.20;99.90
22436;DHT22;11385;50.822;4.324;2023-11-19T12:38:35;13.10;99.90
22436;DHT22;11385;50.822;4.324;2023-11-19T12:41:04;13.20;99.90
22436;DHT22;11385;50.822;4.324;2023-11-19T12:43:31;13.30;99.90
22436;DHT22;11385;50.822;4.324;2023-11-19T12:45:58;13.30;99.90
22436;DHT22;11385;50.822;4.324;2023-11-19T12:48:24;13.30;99.90
22436;DHT22;11385;50.822;4.324;2023-11-19T12:50:55;13.30;99.90
22436;DHT22;11385;50.822;4.324;2023-11-19T12:53:24;13.40;99.90
22436;DHT22;11385;50.822;4.324;2023-11-19T12:55:51;13.40;99.90
22436;DHT22;11385;50.822;4.324;2023-11-19T12:58:31;13.50;99.90
22436;DHT22;11385;50.822;4.324;2023-11-19T13:01:03;13.60;99.90
22436;DHT22;11385;50.822;4.324;2023-11-19T13:03:33;13.50;99.90
22436;DHT22;11385;50.822;4.324;2023-11-19T13:06:04;13.60;99.90
22436;DHT22;11385;50.822;4.324;2023-11-19T13:08:42;13.70;99.90
22436;DHT22;11385;50.822;4.324;2023-11-19T13:11:11;13.60;99.90
22436;DHT22;11385;50.822;4.324;2023-11-19T13:16:16;13.70;99.90
22436;DHT22;11385;50.822;4.324;2023-11-19T13:18:43;13.70;99.90
22436;DHT22;11385;50.822;4.324;2023-11-19T13:21:10;13.80;99.90
22436;DHT22;11385;50.822;4.324;2023-11-19T13:23:37;13.90;99.90
22436;DHT22;11385;50.822;4.324;2023-11-19T13:26:04;13.90;99.90
22436;DHT22;11385;50.822;4.324;2023-11-19T13:28:31;13.80;99.90
22436;DHT22;11385;50.822;4.324;2023-11-19T13:30:58;13.80;99.90
22436;DHT22;11385;50.822;4.324;2023-11-19T13:33:25;13.60;99.90
22436;DHT22;11385;50.822;4.324;2023-11-19T13:36:03;13.40;99.90
22436;DHT22;11385;50.822;4.324;2023-11-19T13:38:42;13.40;99.90
22436;DHT22;11385;50.822;4.324;2023-11-19T13:41:20;13.40;99.90
22436;DHT22;11385;50.822;4.324;2023-11-19T13:43:55;13.50;99.90
22436;DHT22;11385;50.822;4.324;2023-11-19T13:46:30;13.40;99.90
22436;DHT22;11385;50.822;4.324;2023-11-19T13:49:10;13.30;99.90
22436;DHT22;11385;50.822;4.324;2023-11-19T13:51:52;13.40;99.90
22436;DHT22;11385;50.822;4.324;2023-11-19T13:54:28;13.30;99.90
22436;DHT22;11385;50.822;4.324;2023-11-19T13:57:05;13.30;99.90
22436;DHT22;11385;50.822;4.324;2023-11-19T13:59:40;13.40;99.90
22436;DHT22;11385;50.822;4.324;2023-11-19T14:02:17;13.30;99.90
22436;DHT22;11385;50.822;4.324;2023-11-19T14:04:54;13.40;99.90
22436;DHT22;11385;50.822;4.324;2023-11-19T14:07:29;13.30;99.90
22436;DHT22;11385;50.822;4.324;2023-11-19T14:10:06;13.30;99.90
22436;DHT22;11385;50.822;4.324;2023-11-19T14:12:43;13.40;99.90
22436;DHT22;11385;50.822;4.324;2023-11-19T14:15:23;13.40;99.90
22436;DHT22;11385;50.822;4.324;2023-11-19T14:17:58;13.40;99.90
22436;DHT22;11385;50.822;4.324;2023-11-19T14:20:33;13.30;99.90
22436;DHT22;11385;50.822;4.324;2023-11-19T14:23:10;13.40;99.90
22436;DHT22;11385;50.822;4.324;2023-11-19T14:25:47;13.40;99.90
22436;DHT22;11385;50.822;4.324;2023-11-19T14:28:22;13.20;99.90
22436;DHT22;11385;50.822;4.324;2023-11-19T14:31:01;13.00;99.90
22436;DHT22;11385;50.822;4.324;2023-11-19T14:33:36;12.80;99.90
22436;DHT22;11385;50.822;4.324;2023-11-19T14:36:17;12.60;99.90
22436;DHT22;11385;50.822;4.324;2023-11-19T14:38:57;12.60;99.90
22436;DHT22;11385;50.822;4.324;2023-11-19T14:41:33;12.50;99.90
22436;DHT22;11385;50.822;4.324;2023-11-19T14:44:10;12.50;99.90
22436;DHT22;11385;50.822;4.324;2023-11-19T14:46:47;12.60;99.90
22436;DHT22;11385;50.822;4.324;2023-11-19T14:49:22;12.50;99.90
22436;DHT22;11385;50.822;4.324;2023-11-19T14:52:01;12.60;99.90
22436;DHT22;11385;50.822;4.324;2023-11-19T14:54:41;12.50;99.90
22436;DHT22;11385;50.822;4.324;2023-11-19T14:57:17;12.50;99.90
22436;DHT22;11385;50.822;4.324;2023-11-19T14:59:54;12.60;99.90
22436;DHT22;11385;50.822;4.324;2023-11-19T15:02:31;12.60;99.90
22436;DHT22;11385;50.822;4.324;2023-11-19T15:05:11;12.60;99.90
22436;DHT22;11385;50.822;4.324;2023-11-19T15:07:52;12.60;99.90
22436;DHT22;11385;50.822;4.324;2023-11-19T15:10:27;12.60;99.90
22436;DHT22;11385;50.822;4.324;2023-11-19T15:13:02;12.70;99.90
22436;DHT22;11385;50.822;4.324;2023-11-19T15:15:39;12.80;99.90
22436;DHT22;11385;50.822;4.324;2023-11-19T15:18:14;12.70;99.90
22436;DHT22;11385;50.822;4.324;2023-11-19T15:20:50;12.70;99.90
22436;DHT22;11385;50.822;4.324;2023-11-19T15:23:26;12.70;99.90
22436;DHT22;11385;50.822;4.324;2023-11-19T15:28:32;12.70;99.90
22436;DHT22;11385;50.822;4.324;2023-11-19T15:31:12;12.80;99.90
22436;DHT22;11385;50.822;4.324;2023-11-19T15:33:55;12.80;99.90
22436;DHT22;11385;50.822;4.324;2023-11-19T15:36:30;13.00;99.90
22436;DHT22;11385;50.822;4.324;2023-11-19T15:39:02;13.00;99.90
22436;DHT22;11385;50.822;4.324;2023-11-19T15:41:36;13.10;99.90
22436;DHT22;11385;50.822;4.324;2023-11-19T15:44:10;12.90;99.90
22436;DHT22;11385;50.822;4.324;2023-11-19T15:46:57;13.00;99.90
22436;DHT22;11385;50.822;4.324;2023-11-19T15:49:33;13.00;99.90
22436;DHT22;11385;50.822;4.324;2023-11-19T15:52:08;13.00;99.90
22436;DHT22;11385;50.822;4.324;2023-11-19T15:54:43;13.00;99.90
22436;DHT22;11385;50.822;4.324;2023-11-19T15:57:20;12.90;99.90
22436;DHT22;11385;50.822;4.324;2023-11-19T15:59:57;12.80;99.90
22436;DHT22;11385;50.822;4.324;2023-11-19T16:02:35;12.60;99.90
22436;DHT22;11385;50.822;4.324;2023-11-19T16:05:24;12.50;99.90
22436;DHT22;11385;50.822;4.324;2023-11-19T16:07:59;12.50;99.90